createdAt,value
2018-11-05T00:00:17.360Z,34.30
2018-11-05T00:01:17.387Z,32.80
2018-11-05T00:02:17.417Z,32.80
2018-11-05T00:03:17.445Z,34.60
2018-11-05T00:04:17.472Z,34.40
2018-11-05T00:05:17.501Z,34.50
2018-11-05T00:06:17.534Z,36.30
2018-11-05T00:07:17.557Z,34.00
2018-11-05T00:08:17.586Z,33.50
2018-11-05T00:09:17.617Z,31.40
2018-11-05T00:10:17.644Z,33.40
2018-11-05T00:11:17.670Z,34.20
2018-11-05T00:12:17.700Z,34.20
2018-11-05T00:13:17.728Z,33.40
2018-11-05T00:14:17.756Z,35.50
2018-11-05T00:15:17.784Z,36.00
2018-11-05T00:16:17.813Z,35.40
2018-11-05T00:17:17.841Z,35.90
2018-11-05T00:18:17.871Z,38.10
2018-11-05T00:19:17.902Z,36.80
2018-11-05T00:20:17.926Z,36.60
2018-11-05T00:21:17.953Z,35.20
2018-11-05T00:22:17.981Z,36.60
2018-11-05T00:23:18.012Z,36.10
2018-11-05T00:24:18.039Z,36.60
2018-11-05T00:25:18.074Z,38.50
2018-11-05T00:26:18.095Z,38.90
2018-11-05T00:27:18.125Z,38.10
2018-11-05T00:28:18.153Z,36.70
2018-11-05T00:29:18.185Z,37.50
2018-11-05T00:30:18.208Z,37.30
2018-11-05T00:31:18.239Z,39.00
2018-11-05T00:32:18.267Z,37.90
2018-11-05T00:33:18.295Z,39.60
2018-11-05T00:34:18.324Z,37.60
2018-11-05T00:35:18.351Z,40.30
2018-11-05T00:36:18.379Z,39.50
2018-11-05T00:37:18.407Z,38.90
2018-11-05T00:38:18.437Z,39.10
2018-11-05T00:39:18.465Z,39.30
2018-11-05T00:40:18.492Z,37.80
2018-11-05T00:41:18.520Z,39.60
2018-11-05T00:42:18.552Z,36.80
2018-11-05T00:43:18.578Z,34.90
2018-11-05T00:44:18.607Z,35.70
2018-11-05T00:45:18.634Z,37.20
2018-11-05T00:46:18.666Z,33.80
2018-11-05T00:47:18.691Z,34.90
2018-11-05T00:48:18.720Z,36.40
2018-11-05T00:49:18.747Z,35.60
2018-11-05T00:50:18.779Z,35.40
2018-11-05T00:51:18.803Z,35.10
2018-11-05T00:52:19.462Z,34.10
2018-11-05T00:53:18.859Z,34.20
2018-11-05T00:54:18.888Z,34.00
2018-11-05T00:55:18.916Z,33.60
2018-11-05T00:56:18.957Z,36.20
2018-11-05T00:57:18.973Z,34.90
2018-11-05T00:58:19.002Z,31.60
2018-11-05T00:59:19.076Z,33.00
2018-11-05T01:00:19.058Z,32.90
2018-11-05T01:01:19.085Z,33.10
2018-11-05T01:02:19.113Z,32.80
2018-11-05T01:03:19.143Z,32.00
2018-11-05T01:04:19.171Z,31.50
2018-11-05T01:05:19.200Z,31.30
2018-11-05T01:06:19.228Z,34.10
2018-11-05T01:07:19.256Z,33.00
2018-11-05T01:08:19.286Z,33.60
2018-11-05T01:09:19.312Z,31.70
2018-11-05T01:10:19.340Z,33.80
2018-11-05T01:11:19.368Z,32.60
2018-11-05T01:12:19.398Z,32.20
2018-11-05T01:13:19.427Z,31.40
2018-11-05T01:14:19.454Z,33.10
2018-11-05T01:15:19.481Z,33.00
2018-11-05T01:16:19.515Z,34.90
2018-11-05T01:17:19.538Z,33.90
2018-11-05T01:18:19.567Z,32.50
2018-11-05T01:19:19.595Z,33.80
2018-11-05T01:20:19.624Z,34.40
2018-11-05T01:21:19.650Z,34.90
2018-11-05T01:22:19.684Z,35.40
2018-11-05T01:23:19.710Z,32.90
2018-11-05T01:24:19.738Z,35.90
2018-11-05T01:25:19.764Z,34.20
2018-11-05T01:26:19.795Z,33.70
2018-11-05T01:27:19.822Z,33.90
2018-11-05T01:28:19.853Z,32.00
2018-11-05T01:29:19.877Z,32.80
2018-11-05T01:30:19.906Z,33.90
2018-11-05T01:31:19.934Z,33.30
2018-11-05T01:32:19.962Z,32.20
2018-11-05T01:33:19.991Z,31.40
2018-11-05T01:34:20.021Z,32.60
2018-11-05T01:35:20.049Z,31.70
2018-11-05T01:36:20.128Z,32.20
2018-11-05T01:37:20.200Z,31.80
2018-11-05T01:38:20.134Z,33.00
2018-11-05T01:39:20.161Z,31.60
2018-11-05T01:40:20.192Z,31.40
2018-11-05T01:41:20.222Z,31.60
2018-11-05T01:42:20.246Z,32.00
2018-11-05T01:43:20.276Z,31.90
2018-11-05T01:44:20.304Z,32.60
2018-11-05T01:45:20.331Z,32.40
2018-11-05T01:46:20.360Z,32.10
2018-11-05T01:47:20.388Z,32.10
2018-11-05T01:48:20.422Z,31.80
2018-11-05T01:49:20.445Z,31.20
2018-11-05T01:50:20.474Z,31.10
2018-11-05T01:51:20.502Z,30.90
2018-11-05T01:52:20.530Z,31.90
2018-11-05T01:53:20.559Z,30.50
2018-11-05T01:54:20.589Z,30.00
2018-11-05T01:55:20.615Z,31.60
2018-11-05T01:56:20.646Z,30.70
2018-11-05T01:57:20.672Z,31.30
2018-11-05T01:58:20.701Z,30.10
2018-11-05T01:59:20.730Z,32.40
2018-11-05T02:00:20.759Z,32.10
2018-11-05T02:01:20.787Z,32.90
2018-11-05T02:02:20.815Z,30.30
2018-11-05T02:03:20.843Z,31.80
2018-11-05T02:04:20.872Z,30.60
2018-11-05T02:05:20.899Z,30.00
2018-11-05T02:06:20.928Z,29.80
2018-11-05T02:07:20.956Z,29.50
2018-11-05T02:08:21.035Z,28.80
2018-11-05T02:09:21.013Z,29.80
2018-11-05T02:10:21.242Z,30.90
2018-11-05T02:11:21.071Z,30.40
2018-11-05T02:12:21.100Z,30.40
2018-11-05T02:13:21.254Z,30.40
2018-11-05T02:14:21.155Z,30.00
2018-11-05T02:15:21.183Z,29.00
2018-11-05T02:16:21.213Z,30.30
2018-11-05T02:17:21.240Z,30.40
2018-11-05T02:18:21.267Z,30.30
2018-11-05T02:19:21.296Z,32.00
2018-11-05T02:20:21.325Z,30.10
2018-11-05T02:21:21.352Z,32.50
2018-11-05T02:22:21.380Z,31.00
2018-11-05T02:23:21.412Z,30.00
2018-11-05T02:24:21.437Z,29.60
2018-11-05T02:25:21.467Z,28.70
2018-11-05T02:26:21.494Z,30.00
2018-11-05T02:27:21.663Z,28.00
2018-11-05T02:28:21.550Z,28.50
2018-11-05T02:29:21.579Z,28.40
2018-11-05T02:30:21.607Z,31.20
2018-11-05T02:31:21.634Z,29.50
2018-11-05T02:32:21.663Z,30.20
2018-11-05T02:33:21.690Z,28.80
2018-11-05T02:34:21.719Z,30.60
2018-11-05T02:35:21.747Z,29.80
2018-11-05T02:36:21.775Z,30.00
2018-11-05T02:37:21.804Z,28.40
2018-11-05T02:38:21.833Z,28.30
2018-11-05T02:39:21.858Z,29.40
2018-11-05T02:40:21.889Z,29.10
2018-11-05T02:41:21.916Z,29.90
2018-11-05T02:42:21.944Z,28.20
2018-11-05T02:43:21.973Z,30.00
2018-11-05T02:44:21.999Z,30.20
2018-11-05T02:45:22.028Z,28.60
2018-11-05T02:46:22.056Z,27.20
2018-11-05T02:47:22.084Z,28.00
2018-11-05T02:48:22.113Z,27.60
2018-11-05T02:49:22.141Z,27.60
2018-11-05T02:50:22.168Z,29.00
2018-11-05T02:51:22.197Z,27.30
2018-11-05T02:52:22.225Z,28.40
2018-11-05T02:53:22.253Z,28.00
2018-11-05T02:54:22.282Z,27.60
2018-11-05T02:55:22.310Z,27.40
2018-11-05T02:56:22.338Z,27.00
2018-11-05T02:57:22.366Z,28.10
2018-11-05T02:58:22.396Z,28.80
2018-11-05T02:59:22.430Z,27.40
2018-11-05T03:00:22.451Z,26.50
2018-11-05T03:01:22.478Z,26.90
2018-11-05T03:02:22.506Z,26.40
2018-11-05T03:03:22.623Z,26.40
2018-11-05T03:04:22.564Z,26.90
2018-11-05T03:05:22.590Z,27.70
2018-11-05T03:06:22.620Z,26.50
2018-11-05T03:07:22.646Z,27.50
2018-11-05T03:08:22.675Z,28.60
2018-11-05T03:09:22.703Z,27.50
2018-11-05T03:10:22.729Z,27.70
2018-11-05T03:11:22.758Z,28.00
2018-11-05T03:12:22.787Z,26.90
2018-11-05T03:13:22.816Z,27.30
2018-11-05T03:14:22.843Z,26.60
2018-11-05T03:15:22.873Z,26.40
2018-11-05T03:16:22.904Z,26.70
2018-11-05T03:17:22.934Z,25.40
2018-11-05T03:18:22.956Z,26.20
2018-11-05T03:19:22.984Z,26.30
2018-11-05T03:20:23.012Z,25.40
2018-11-05T03:21:23.044Z,24.90
2018-11-05T03:22:23.070Z,26.30
2018-11-05T03:23:23.097Z,26.50
2018-11-05T03:24:23.124Z,27.30
2018-11-05T03:25:23.163Z,27.20
2018-11-05T03:26:23.181Z,26.70
2018-11-05T03:27:23.209Z,25.80
2018-11-05T03:28:23.237Z,26.50
2018-11-05T03:29:23.264Z,27.50
2018-11-05T03:30:23.293Z,27.00
2018-11-05T03:31:23.322Z,27.00
2018-11-05T03:32:23.352Z,24.40
2018-11-05T03:33:23.377Z,26.30
2018-11-05T03:34:23.405Z,27.10
2018-11-05T03:35:23.436Z,26.90
2018-11-05T03:36:23.464Z,27.90
2018-11-05T03:37:23.491Z,26.80
2018-11-05T03:38:23.519Z,28.80
2018-11-05T03:39:23.547Z,28.90
2018-11-05T03:40:23.574Z,27.70
2018-11-05T03:41:23.603Z,29.80
2018-11-05T03:42:23.629Z,30.30
2018-11-05T03:43:23.658Z,29.20
2018-11-05T03:44:23.688Z,29.70
2018-11-05T03:45:23.714Z,29.90
2018-11-05T03:46:23.742Z,30.10
2018-11-05T03:47:23.770Z,30.60
2018-11-05T03:48:23.798Z,29.00
2018-11-05T03:49:23.829Z,28.30
2018-11-05T03:50:23.853Z,28.40
2018-11-05T03:51:23.887Z,29.00
2018-11-05T03:52:23.911Z,28.80
2018-11-05T03:53:23.943Z,30.10
2018-11-05T03:54:23.964Z,27.50
2018-11-05T03:55:24.024Z,30.10
2018-11-05T03:56:24.111Z,29.20
2018-11-05T03:57:24.053Z,28.00
2018-11-05T03:58:24.078Z,26.80
2018-11-05T03:59:24.105Z,26.60
2018-11-05T04:00:24.132Z,27.10
2018-11-05T04:01:24.161Z,25.70
2018-11-05T04:02:24.188Z,26.60
2018-11-05T04:03:24.315Z,26.90
2018-11-05T04:04:24.244Z,26.80
2018-11-05T04:05:25.624Z,26.80
2018-11-05T04:06:24.301Z,25.70
2018-11-05T04:07:24.329Z,27.60
2018-11-05T04:08:24.356Z,25.50
2018-11-05T04:09:24.385Z,25.20
2018-11-05T04:10:24.413Z,27.00
2018-11-05T04:11:24.440Z,25.70
2018-11-05T04:12:24.468Z,26.00
2018-11-05T04:13:24.498Z,26.40
2018-11-05T04:14:24.526Z,28.10
2018-11-05T04:15:24.717Z,27.00
2018-11-05T04:16:24.581Z,27.60
2018-11-05T04:17:24.610Z,27.90
2018-11-05T04:18:24.636Z,27.50
2018-11-05T04:19:24.674Z,27.00
2018-11-05T04:20:24.693Z,27.30
2018-11-05T04:21:24.721Z,26.10
2018-11-05T04:22:24.750Z,25.00
2018-11-05T04:23:24.779Z,25.50
2018-11-05T04:24:24.807Z,27.70
2018-11-05T04:25:24.833Z,26.10
2018-11-05T04:26:24.862Z,26.20
2018-11-05T04:27:24.890Z,27.20
2018-11-05T04:28:24.918Z,25.90
2018-11-05T04:29:24.947Z,27.50
2018-11-05T04:30:24.974Z,29.20
2018-11-05T04:31:25.002Z,27.10
2018-11-05T04:32:25.033Z,28.40
2018-11-05T04:33:25.059Z,28.60
2018-11-05T04:34:25.086Z,28.00
2018-11-05T04:35:25.119Z,28.60
2018-11-05T04:36:25.153Z,27.10
2018-11-05T04:37:25.172Z,28.10
2018-11-05T04:38:25.199Z,28.00
2018-11-05T04:39:25.231Z,26.90
2018-11-05T04:40:25.256Z,28.30
2018-11-05T04:41:25.282Z,25.90
2018-11-05T04:42:25.311Z,27.50
2018-11-05T04:43:25.338Z,26.30
2018-11-05T04:44:25.368Z,26.10
2018-11-05T04:45:25.411Z,27.20
2018-11-05T04:46:25.423Z,26.70
2018-11-05T04:47:25.452Z,26.30
2018-11-05T04:48:25.478Z,26.60
2018-11-05T04:49:25.511Z,27.20
2018-11-05T04:50:25.534Z,27.80
2018-11-05T04:51:25.564Z,27.60
2018-11-05T04:52:25.591Z,27.60
2018-11-05T04:53:25.617Z,26.30
2018-11-05T04:54:25.650Z,26.70
2018-11-05T04:55:25.674Z,26.90
2018-11-05T04:56:25.704Z,26.30
2018-11-05T04:57:25.731Z,27.10
2018-11-05T04:58:25.759Z,27.30
2018-11-05T04:59:25.787Z,25.70
2018-11-05T05:00:25.815Z,24.70
2018-11-05T05:01:25.843Z,26.00
2018-11-05T05:02:25.870Z,25.10
2018-11-05T05:03:25.989Z,25.40
2018-11-05T05:04:25.926Z,24.50
2018-11-05T05:05:25.962Z,25.90
2018-11-05T05:06:25.981Z,25.30
2018-11-05T05:07:26.009Z,25.50
2018-11-05T05:08:26.040Z,25.80
2018-11-05T05:09:26.065Z,26.30
2018-11-05T05:10:26.094Z,25.70
2018-11-05T05:11:26.123Z,24.90
2018-11-05T05:12:26.151Z,24.20
2018-11-05T05:13:26.178Z,24.20
2018-11-05T05:14:26.205Z,25.40
2018-11-05T05:15:26.235Z,23.20
2018-11-05T05:16:26.297Z,25.30
2018-11-05T05:17:26.290Z,27.10
2018-11-05T05:18:26.319Z,24.20
2018-11-05T05:19:26.349Z,28.00
2018-11-05T05:20:26.376Z,25.50
2018-11-05T05:21:26.401Z,27.60
2018-11-05T05:22:26.505Z,26.60
2018-11-05T05:23:26.461Z,26.10
2018-11-05T05:24:26.484Z,27.70
2018-11-05T05:25:26.513Z,26.20
2018-11-05T05:26:26.542Z,27.40
2018-11-05T05:27:26.570Z,29.20
2018-11-05T05:28:26.598Z,28.70
2018-11-05T05:29:26.624Z,28.30
2018-11-05T05:30:26.653Z,27.20
2018-11-05T05:31:26.680Z,28.30
2018-11-05T05:32:26.709Z,28.50
2018-11-05T05:33:26.770Z,28.60
2018-11-05T05:34:26.764Z,29.30
2018-11-05T05:35:26.793Z,28.40
2018-11-05T05:36:26.821Z,29.10
2018-11-05T05:37:26.849Z,27.90
2018-11-05T05:38:26.875Z,26.50
2018-11-05T05:39:26.904Z,28.00
2018-11-05T05:40:26.931Z,26.20
2018-11-05T05:41:27.045Z,26.70
2018-11-05T05:42:26.988Z,25.80
2018-11-05T05:43:27.018Z,26.90
2018-11-05T05:44:27.043Z,27.50
2018-11-05T05:45:27.070Z,26.90
2018-11-05T05:46:27.099Z,30.60
2018-11-05T05:47:27.127Z,30.80
2018-11-05T05:48:27.154Z,32.30
2018-11-05T05:49:27.183Z,32.70
2018-11-05T05:50:27.210Z,31.70
2018-11-05T05:51:27.239Z,31.90
2018-11-05T05:52:27.268Z,33.90
2018-11-05T05:53:27.297Z,33.60
2018-11-05T05:54:27.327Z,32.10
2018-11-05T05:55:27.351Z,30.70
2018-11-05T05:56:27.379Z,28.70
2018-11-05T05:57:27.407Z,28.50
2018-11-05T05:58:27.434Z,30.00
2018-11-05T05:59:27.461Z,28.20
2018-11-05T06:00:27.490Z,28.30
2018-11-05T06:01:27.519Z,27.20
2018-11-05T06:02:27.546Z,29.00
2018-11-05T06:03:27.575Z,29.90
2018-11-05T06:04:27.602Z,29.00
2018-11-05T06:05:27.632Z,27.60
2018-11-05T06:06:27.728Z,26.90
2018-11-05T06:07:27.686Z,28.20
2018-11-05T06:08:27.715Z,28.50
2018-11-05T06:09:27.747Z,28.40
2018-11-05T06:10:27.770Z,28.00
2018-11-05T06:11:27.798Z,27.00
2018-11-05T06:12:27.827Z,26.70
2018-11-05T06:13:27.859Z,27.90
2018-11-05T06:14:27.882Z,26.50
2018-11-05T06:15:27.911Z,27.10
2018-11-05T06:16:27.943Z,28.10
2018-11-05T06:17:27.968Z,28.00
2018-11-05T06:18:27.997Z,25.80
2018-11-05T06:19:28.024Z,28.40
2018-11-05T06:20:28.051Z,27.90
2018-11-05T06:21:28.078Z,26.30
2018-11-05T06:22:28.109Z,28.40
2018-11-05T06:23:28.170Z,27.80
2018-11-05T06:24:28.165Z,27.70
2018-11-05T06:25:28.196Z,27.70
2018-11-05T06:26:28.220Z,27.30
2018-11-05T06:27:28.249Z,27.80
2018-11-05T06:28:28.344Z,28.40
2018-11-05T06:29:28.305Z,28.30
2018-11-05T06:30:28.333Z,28.00
2018-11-05T06:31:28.363Z,28.10
2018-11-05T06:32:28.394Z,24.70
2018-11-05T06:33:28.418Z,24.30
2018-11-05T06:34:28.445Z,26.90
2018-11-05T06:35:28.557Z,25.10
2018-11-05T06:36:28.518Z,24.70
2018-11-05T06:37:28.543Z,25.30
2018-11-05T06:38:28.558Z,25.90
2018-11-05T06:39:28.607Z,24.60
2018-11-05T06:40:28.636Z,24.40
2018-11-05T06:41:28.869Z,25.70
2018-11-05T06:42:28.691Z,24.50
2018-11-05T06:43:28.716Z,23.10
2018-11-05T06:44:28.753Z,22.20
2018-11-05T06:45:31.409Z,23.00
2018-11-05T06:46:28.802Z,23.70
2018-11-05T06:47:28.835Z,23.90
2018-11-05T06:48:28.866Z,23.50
2018-11-05T06:49:28.867Z,25.30
2018-11-05T06:50:28.897Z,23.30
2018-11-05T06:51:28.924Z,24.20
2018-11-05T06:52:28.953Z,24.50
2018-11-05T06:53:28.981Z,23.10
2018-11-05T06:54:29.009Z,24.00
2018-11-05T06:55:29.037Z,24.20
2018-11-05T06:56:29.066Z,24.00
2018-11-05T06:57:29.122Z,24.60
2018-11-05T06:58:29.127Z,23.60
2018-11-05T06:59:29.151Z,23.60
2018-11-05T07:00:29.181Z,23.80
2018-11-05T07:01:29.207Z,23.30
2018-11-05T07:02:29.341Z,24.30
2018-11-05T07:03:29.278Z,23.30
2018-11-05T07:04:29.308Z,24.70
2018-11-05T07:05:29.351Z,27.20
2018-11-05T07:06:29.424Z,28.60
2018-11-05T07:07:29.394Z,26.90
2018-11-05T07:08:29.425Z,25.90
2018-11-05T07:09:29.450Z,27.20
2018-11-05T07:10:29.484Z,26.60
2018-11-05T07:11:29.524Z,25.70
2018-11-05T07:12:29.540Z,27.60
2018-11-05T07:13:29.561Z,26.00
2018-11-05T07:14:29.600Z,25.80
2018-11-05T07:15:29.623Z,25.40
2018-11-05T07:16:29.649Z,25.60
2018-11-05T07:17:29.678Z,26.20
2018-11-05T07:18:29.829Z,26.80
2018-11-05T07:19:29.816Z,26.20
2018-11-05T07:20:29.762Z,25.20
2018-11-05T07:21:29.789Z,25.40
2018-11-05T07:22:29.824Z,26.80
2018-11-05T07:23:29.851Z,25.70
2018-11-05T07:24:32.504Z,26.70
2018-11-05T07:25:29.909Z,25.40
2018-11-05T07:26:29.955Z,26.40
2018-11-05T07:27:30.000Z,25.80
2018-11-05T07:28:29.991Z,25.40
2018-11-05T07:29:32.643Z,26.10
2018-11-05T07:30:30.061Z,25.90
2018-11-05T07:31:30.081Z,26.00
2018-11-05T07:32:30.115Z,26.40
2018-11-05T07:33:30.210Z,26.30
2018-11-05T07:34:30.228Z,25.70
2018-11-05T07:35:30.192Z,26.60
2018-11-05T07:36:30.224Z,25.30
2018-11-05T07:37:30.256Z,25.70
2018-11-05T07:38:30.280Z,28.40
2018-11-05T07:39:30.296Z,26.70
2018-11-05T07:40:30.328Z,26.10
2018-11-05T07:41:30.353Z,27.50
2018-11-05T07:42:30.383Z,27.90
2018-11-05T07:43:30.411Z,27.10
2018-11-05T07:44:30.440Z,28.00
2018-11-05T07:45:30.468Z,26.60
2018-11-05T07:46:30.497Z,27.10
2018-11-05T07:47:30.527Z,26.10
2018-11-05T07:48:30.557Z,27.60
2018-11-05T07:49:30.586Z,26.70
2018-11-05T07:50:30.657Z,26.70
2018-11-05T07:51:30.644Z,27.90
2018-11-05T07:52:30.672Z,29.10
2018-11-05T07:53:30.703Z,28.90
2018-11-05T07:54:30.730Z,29.30
2018-11-05T07:55:30.759Z,30.10
2018-11-05T07:56:30.807Z,31.20
2018-11-05T07:57:30.823Z,28.50
2018-11-05T07:58:30.845Z,29.80
2018-11-05T07:59:30.875Z,28.30
2018-11-05T08:00:30.904Z,29.20
2018-11-05T08:01:30.933Z,28.40
2018-11-05T08:02:30.963Z,31.70
2018-11-05T08:03:30.992Z,30.70
2018-11-05T08:04:31.022Z,34.40
2018-11-05T08:05:31.050Z,35.60
2018-11-05T08:06:31.079Z,34.70
2018-11-05T08:07:31.110Z,34.90
2018-11-05T08:08:31.228Z,35.70
2018-11-05T08:09:31.167Z,35.60
2018-11-05T08:10:31.200Z,37.90
2018-11-05T08:11:31.227Z,35.50
2018-11-05T08:12:31.256Z,36.30
2018-11-05T08:13:31.285Z,36.90
2018-11-05T08:14:31.389Z,36.40
2018-11-05T08:15:31.344Z,34.20
2018-11-05T08:16:31.374Z,32.30
2018-11-05T08:17:31.403Z,33.40
2018-11-05T08:18:31.433Z,33.50
2018-11-05T08:19:31.464Z,32.30
2018-11-05T08:20:31.492Z,33.20
2018-11-05T08:21:31.525Z,32.80
2018-11-05T08:22:31.551Z,33.60
2018-11-05T08:23:31.580Z,31.90
2018-11-05T08:24:31.610Z,33.00
2018-11-05T08:25:31.640Z,34.20
2018-11-05T08:26:31.689Z,32.90
2018-11-05T08:27:31.713Z,30.80
2018-11-05T08:28:31.743Z,32.60
2018-11-05T08:29:31.777Z,32.00
2018-11-05T08:30:31.804Z,33.50
2018-11-05T08:31:31.829Z,34.50
2018-11-05T08:32:31.862Z,34.30
2018-11-05T08:33:31.896Z,35.30
2018-11-05T08:34:31.927Z,34.60
2018-11-05T08:35:31.948Z,33.70
2018-11-05T08:36:31.988Z,35.00
2018-11-05T08:37:32.015Z,33.00
2018-11-05T08:38:32.054Z,34.70
2018-11-05T08:39:32.075Z,35.00
2018-11-05T08:40:32.107Z,35.10
2018-11-05T08:41:32.133Z,33.10
2018-11-05T08:42:32.156Z,35.10
2018-11-05T08:43:32.188Z,34.10
2018-11-05T08:44:32.222Z,33.90
2018-11-05T08:45:32.257Z,34.40
2018-11-05T08:46:32.282Z,33.20
2018-11-05T08:47:32.307Z,33.80
2018-11-05T08:48:32.343Z,32.80
2018-11-05T08:49:32.375Z,32.90
2018-11-05T08:50:32.445Z,31.40
2018-11-05T08:51:32.683Z,32.80
2018-11-05T08:52:32.462Z,33.70
2018-11-05T08:53:32.485Z,32.80
2018-11-05T08:54:32.517Z,34.10
2018-11-05T08:55:32.557Z,33.20
2018-11-05T08:56:32.585Z,34.40
2018-11-05T08:57:32.666Z,35.60
2018-11-05T08:58:32.645Z,35.60
2018-11-05T08:59:32.675Z,34.20
2018-11-05T09:00:32.707Z,34.00
2018-11-05T09:01:32.730Z,32.80
2018-11-05T09:02:32.760Z,34.30
2018-11-05T09:03:32.784Z,34.60
2018-11-05T09:04:32.854Z,33.20
2018-11-05T09:05:32.856Z,34.70
2018-11-05T09:06:32.880Z,31.40
2018-11-05T09:07:32.921Z,32.90
2018-11-05T09:08:32.945Z,31.30
2018-11-05T09:09:32.977Z,31.90
2018-11-05T09:10:33.183Z,32.00
2018-11-05T09:11:33.419Z,32.20
2018-11-05T09:12:33.059Z,32.20
2018-11-05T09:13:33.085Z,31.10
2018-11-05T09:14:33.119Z,32.30
2018-11-05T09:15:33.149Z,29.30
2018-11-05T09:16:33.178Z,29.70
2018-11-05T09:17:33.213Z,29.70
2018-11-05T09:18:33.244Z,29.00
2018-11-05T09:19:33.273Z,29.10
2018-11-05T09:20:33.307Z,28.70
2018-11-05T09:21:33.330Z,30.20
2018-11-05T09:22:33.364Z,29.70
2018-11-05T09:23:33.398Z,30.70
2018-11-05T09:24:33.425Z,30.30
2018-11-05T09:25:33.445Z,30.10
2018-11-05T09:26:33.493Z,32.20
2018-11-05T09:27:33.518Z,30.70
2018-11-05T09:28:33.544Z,30.50
2018-11-05T09:29:33.575Z,30.40
2018-11-05T09:30:33.612Z,31.20
2018-11-05T09:31:33.632Z,31.90
2018-11-05T09:32:33.648Z,32.00
2018-11-05T09:33:33.698Z,32.90
2018-11-05T09:34:33.728Z,31.00
2018-11-05T09:35:33.761Z,31.00
2018-11-05T09:36:33.770Z,32.30
2018-11-05T09:37:33.800Z,30.70
2018-11-05T09:38:33.830Z,29.90
2018-11-05T09:39:33.862Z,31.20
2018-11-05T09:40:33.893Z,31.60
2018-11-05T09:41:33.922Z,30.90
2018-11-05T09:42:33.985Z,32.50
2018-11-05T09:43:33.986Z,30.90
2018-11-05T09:44:34.017Z,32.30
2018-11-05T09:45:34.051Z,32.40
2018-11-05T09:46:34.077Z,32.20
2018-11-05T09:47:34.108Z,32.20
2018-11-05T09:48:34.139Z,32.30
2018-11-05T09:49:34.208Z,33.10
2018-11-05T09:50:34.227Z,30.80
2018-11-05T09:51:34.232Z,32.20
2018-11-05T09:52:34.264Z,32.00
2018-11-05T09:53:34.292Z,32.10
2018-11-05T09:54:34.323Z,32.60
2018-11-05T09:55:34.455Z,31.50
2018-11-05T09:56:34.390Z,31.90
2018-11-05T09:57:34.416Z,32.40
2018-11-05T09:58:34.449Z,31.60
2018-11-05T09:59:34.479Z,31.80
2018-11-05T10:00:34.594Z,32.20
2018-11-05T10:01:34.543Z,32.80
2018-11-05T10:02:34.589Z,32.50
2018-11-05T10:03:34.837Z,32.80
2018-11-05T10:04:34.784Z,31.90
2018-11-05T10:05:34.695Z,31.80
2018-11-05T10:06:34.700Z,30.40
2018-11-05T10:07:34.743Z,31.40
2018-11-05T10:08:34.783Z,31.60
2018-11-05T10:09:34.855Z,32.40
2018-11-05T10:10:34.841Z,31.60
2018-11-05T10:11:34.852Z,32.00
2018-11-05T10:12:34.883Z,30.40
2018-11-05T10:13:34.915Z,32.00
2018-11-05T10:14:34.946Z,31.90
2018-11-05T10:15:35.068Z,31.10
2018-11-05T10:16:35.008Z,31.60
2018-11-05T10:17:35.038Z,31.60
2018-11-05T10:18:35.071Z,30.30
2018-11-05T10:19:35.104Z,30.80
2018-11-05T10:20:35.132Z,32.30
2018-11-05T10:21:35.165Z,30.90
2018-11-05T10:22:35.195Z,30.70
2018-11-05T10:23:35.226Z,30.50
2018-11-05T10:24:35.320Z,31.90
2018-11-05T10:25:35.289Z,32.40
2018-11-05T10:26:35.320Z,31.40
2018-11-05T10:27:35.352Z,32.40
2018-11-05T10:28:35.382Z,31.00
2018-11-05T10:29:35.412Z,31.50
2018-11-05T10:30:35.445Z,30.60
2018-11-05T10:31:35.491Z,32.20
2018-11-05T10:32:35.578Z,31.90
2018-11-05T10:33:35.687Z,31.40
2018-11-05T10:34:35.585Z,33.20
2018-11-05T10:35:35.621Z,30.90
2018-11-05T10:36:35.646Z,31.60
2018-11-05T10:37:35.685Z,31.10
2018-11-05T10:38:35.733Z,31.20
2018-11-05T10:39:35.742Z,31.70
2018-11-05T10:40:35.874Z,30.90
2018-11-05T10:41:35.799Z,29.40
2018-11-05T10:42:35.840Z,29.30
2018-11-05T10:43:35.868Z,30.00
2018-11-05T10:44:35.901Z,29.70
2018-11-05T10:45:35.939Z,29.40
2018-11-05T10:46:35.960Z,27.80
2018-11-05T10:47:35.992Z,29.90
2018-11-05T10:48:36.020Z,29.80
2018-11-05T10:49:36.066Z,30.70
2018-11-05T10:50:36.100Z,28.10
2018-11-05T10:51:36.182Z,29.20
2018-11-05T10:52:36.134Z,29.20
2018-11-05T10:53:36.183Z,28.50
2018-11-05T10:54:36.223Z,27.90
2018-11-05T10:55:36.251Z,27.80
2018-11-05T10:56:36.279Z,26.00
2018-11-05T10:57:36.311Z,25.60
2018-11-05T10:58:36.348Z,26.70
2018-11-05T10:59:36.369Z,26.90
2018-11-05T11:00:36.403Z,26.60
2018-11-05T11:01:36.439Z,26.90
2018-11-05T11:02:36.465Z,25.20
2018-11-05T11:03:36.565Z,25.30
2018-11-05T11:04:36.543Z,24.50
2018-11-05T11:05:36.565Z,24.50
2018-11-05T11:06:36.602Z,24.00
2018-11-05T11:07:36.632Z,23.40
2018-11-05T11:08:36.658Z,23.80
2018-11-05T11:09:36.771Z,26.40
2018-11-05T11:10:36.729Z,24.60
2018-11-05T11:11:36.756Z,24.60
2018-11-05T11:12:36.790Z,24.10
2018-11-05T11:13:36.806Z,24.60
2018-11-05T11:14:36.856Z,23.90
2018-11-05T11:15:36.894Z,24.10
2018-11-05T11:16:36.918Z,24.40
2018-11-05T11:17:36.937Z,24.20
2018-11-05T11:18:36.988Z,24.30
2018-11-05T11:19:37.025Z,24.10
2018-11-05T11:20:37.049Z,24.40
2018-11-05T11:21:37.082Z,24.70
2018-11-05T11:22:37.119Z,26.60
2018-11-05T11:23:37.144Z,27.10
2018-11-05T11:24:37.182Z,25.70
2018-11-05T11:25:37.213Z,24.50
2018-11-05T11:26:37.246Z,24.30
2018-11-05T11:27:37.347Z,24.20
2018-11-05T11:28:37.397Z,26.10
2018-11-05T11:29:37.344Z,23.70
2018-11-05T11:30:37.383Z,23.70
2018-11-05T11:31:37.414Z,22.30
2018-11-05T11:32:37.446Z,22.40
2018-11-05T11:33:37.481Z,23.30
2018-11-05T11:34:37.517Z,21.40
2018-11-05T11:35:37.529Z,22.20
2018-11-05T11:36:37.690Z,22.80
2018-11-05T11:37:37.615Z,23.10
2018-11-05T11:38:37.643Z,22.50
2018-11-05T11:39:37.680Z,22.60
2018-11-05T11:40:37.698Z,21.90
2018-11-05T11:41:37.750Z,21.50
2018-11-05T11:42:37.788Z,21.90
2018-11-05T11:43:37.871Z,20.60
2018-11-05T11:44:37.892Z,20.30
2018-11-05T11:45:37.893Z,20.70
2018-11-05T11:46:37.928Z,21.00
2018-11-05T11:47:37.962Z,21.40
2018-11-05T11:48:37.995Z,21.80
2018-11-05T11:49:38.028Z,22.40
2018-11-05T11:50:38.075Z,21.00
2018-11-05T11:51:38.103Z,22.10
2018-11-05T11:52:38.160Z,21.70
2018-11-05T11:53:38.179Z,22.20
2018-11-05T11:54:38.221Z,23.30
2018-11-05T11:55:38.252Z,23.00
2018-11-05T11:56:38.335Z,22.90
2018-11-05T11:57:38.358Z,21.90
2018-11-05T11:58:38.365Z,22.30
2018-11-05T11:59:38.447Z,23.30
2018-11-05T12:00:38.424Z,23.40
2018-11-05T12:01:38.459Z,23.30
2018-11-05T12:02:38.519Z,24.30
2018-11-05T12:03:38.533Z,24.00
2018-11-05T12:04:38.570Z,24.60
2018-11-05T12:05:38.606Z,24.50
2018-11-05T12:06:38.649Z,26.40
2018-11-05T12:07:38.681Z,26.90
2018-11-05T12:08:38.717Z,26.10
2018-11-05T12:09:38.755Z,26.00
2018-11-05T12:10:38.793Z,25.30
2018-11-05T12:11:38.832Z,25.30
2018-11-05T12:12:38.872Z,25.60
2018-11-05T12:13:38.911Z,26.30
2018-11-05T12:14:39.183Z,25.80
2018-11-05T12:15:38.986Z,26.50
2018-11-05T12:16:39.026Z,26.10
2018-11-05T12:17:39.065Z,26.50
2018-11-05T12:18:39.104Z,26.40
2018-11-05T12:19:39.143Z,27.60
2018-11-05T12:20:39.182Z,27.20
2018-11-05T12:21:39.221Z,28.30
2018-11-05T12:22:39.259Z,29.80
2018-11-05T12:23:39.301Z,30.50
2018-11-05T12:24:39.338Z,29.70
2018-11-05T12:25:39.375Z,30.10
2018-11-05T12:26:39.475Z,28.10
2018-11-05T12:27:39.455Z,28.60
2018-11-05T12:28:39.494Z,28.20
2018-11-05T12:29:39.535Z,27.20
2018-11-05T12:30:39.577Z,29.20
2018-11-05T12:31:39.613Z,28.30
2018-11-05T12:32:39.651Z,27.40
2018-11-05T12:33:39.690Z,26.50
2018-11-05T12:34:39.729Z,25.80
2018-11-05T12:35:39.767Z,27.40
2018-11-05T12:36:39.807Z,27.10
2018-11-05T12:37:39.844Z,26.90
2018-11-05T12:38:39.940Z,26.50
2018-11-05T12:39:39.921Z,28.00
2018-11-05T12:40:39.962Z,30.20
2018-11-05T12:41:39.994Z,30.20
2018-11-05T12:42:40.033Z,32.00
2018-11-05T12:43:40.070Z,31.80
2018-11-05T12:44:40.210Z,33.40
2018-11-05T12:45:40.143Z,38.30
2018-11-05T12:46:40.180Z,38.50
2018-11-05T12:47:40.217Z,39.80
2018-11-05T12:48:40.253Z,34.10
2018-11-05T12:49:40.288Z,33.60
2018-11-05T12:50:40.351Z,33.80
2018-11-05T12:51:40.365Z,33.60
2018-11-05T12:52:40.398Z,33.80